LROP/OTP METAR and TAF weather

Enter ICAO airport designator
Station Type Date Time Source
LROP METAR 2020/09/22 08:00 UTC NOAA

LROP 220800Z 10007KT CAVOK 21/11 Q1022 NOSIG


Station Type Date Time Source
LROP Decoded METAR 2020/09/22 08:00 UTC NOAA

Bucuresti Otopeni, Romania (LROP) 44-33N 026-06E 95M
Sep 22, 2020 - 04:00 AM EDT / 2020.09.22 0800 UTC
Wind: from the E (100 degrees) at 8 MPH (7 KT):0
Visibility: greater than 7 mile(s):0
Temperature: 69 F (21 C)
Dew Point: 51 F (11 C)
Relative Humidity: 52%
Pressure (altimeter): 30.18 in. Hg (1022 hPa)
ob: LROP 220800Z 10007KT CAVOK 21/11 Q1022 NOSIG
cycle: 8

Station Type Date Time Source
LROP TAF 2020/09/22 06:33 UTC NOAA

TAF LROP 220500Z 2206/2306 VRB03KT CAVOK
TEMPO 2210/2216 09012KT

Example: see airport list